Time;durP1;ratioP1;P1;durP2;ratioP2;P2;SDS_P1;SDS_P2;PMS_P1;PMS_P2;Temp;Humidity;BMP_temperature;BMP_pressure;BME280_temperature;BME280_humidity;BME280_pressure;Samples;Min_cycle;Max_cycle;Signal;HPM_P1;HPM_P2
2023/06/17 00:00:43;;;;;;;17.20;10.05;;;15.50;99.90;;;;;;5033670;28;20216;-82
2023/06/17 00:03:10;;;;;;;15.65;10.05;;;15.50;99.90;;;;;;5033699;28;20242;-81
2023/06/17 00:05:37;;;;;;;15.43;10.88;;;15.40;99.90;;;;;;5033667;28;20212;-82
2023/06/17 00:08:06;;;;;;;14.88;11.30;;;15.40;99.90;;;;;;5032933;28;20240;-81
2023/06/17 00:10:32;;;;;;;16.77;11.23;;;15.40;99.90;;;;;;5033527;28;20210;-81
2023/06/17 00:13:00;;;;;;;15.82;10.98;;;15.20;99.90;;;;;;5033816;28;20915;-81
2023/06/17 00:15:28;;;;;;;16.15;10.77;;;15.10;99.90;;;;;;5033518;28;20740;-82
2023/06/17 00:17:56;;;;;;;14.23;10.60;;;14.90;99.90;;;;;;5033177;28;20718;-82
2023/06/17 00:20:23;;;;;;;14.68;11.10;;;15.00;99.90;;;;;;5033656;28;20228;-81
2023/06/17 00:22:52;;;;;;;16.33;11.40;;;15.10;99.90;;;;;;5033272;28;20211;-81
2023/06/17 00:25:20;;;;;;;13.75;10.18;;;15.20;99.90;;;;;;5032928;28;20692;-82
2023/06/17 00:27:47;;;;;;;14.65;10.98;;;15.10;99.90;;;;;;5032715;28;20643;-81
2023/06/17 00:30:14;;;;;;;13.40;9.88;;;14.80;99.90;;;;;;5033002;28;20207;-82
2023/06/17 00:32:41;;;;;;;14.68;10.95;;;14.70;99.90;;;;;;5033831;28;20211;-82
2023/06/17 00:35:09;;;;;;;15.35;11.02;;;14.60;99.90;;;;;;5033280;28;20259;-82
2023/06/17 00:37:36;;;;;;;16.10;11.77;;;14.90;99.90;;;;;;5032885;28;20271;-81
2023/06/17 00:40:07;;;;;;;16.73;10.63;;;14.90;99.90;;;;;;5032612;28;20212;-82
2023/06/17 00:42:36;;;;;;;15.67;11.97;;;14.80;99.90;;;;;;5033483;28;20191;-82
2023/06/17 00:45:03;;;;;;;18.67;11.48;;;14.70;99.90;;;;;;5033421;28;20223;-82
2023/06/17 00:47:31;;;;;;;15.88;11.02;;;14.80;99.90;;;;;;5032370;28;20225;-82
2023/06/17 00:49:58;;;;;;;16.17;12.00;;;14.80;99.90;;;;;;5032899;28;20214;-82
2023/06/17 00:52:26;;;;;;;16.67;11.73;;;14.80;99.90;;;;;;5034000;28;20294;-82
2023/06/17 00:54:53;;;;;;;19.10;11.97;;;14.80;99.90;;;;;;5036570;28;20700;-82
2023/06/17 00:57:20;;;;;;;16.27;12.33;;;14.80;99.90;;;;;;5036267;28;20214;-81
2023/06/17 00:59:48;;;;;;;16.63;12.40;;;14.80;99.90;;;;;;5036731;28;20287;-82
2023/06/17 01:02:15;;;;;;;15.00;11.57;;;14.90;99.90;;;;;;5036309;28;20318;-82
2023/06/17 01:04:46;;;;;;;14.48;10.88;;;15.00;99.90;;;;;;5036475;28;20237;-81
2023/06/17 01:07:23;;;;;;;16.27;11.03;;;14.70;99.90;;;;;;5036380;28;20192;-82
2023/06/17 01:09:56;;;;;;;17.33;11.70;;;14.70;99.90;;;;;;5036436;28;20203;-81
2023/06/17 01:12:26;;;;;;;16.33;11.97;;;14.90;99.90;;;;;;5036350;28;20233;-81
2023/06/17 01:14:57;;;;;;;20.33;11.23;;;14.90;99.90;;;;;;5036133;28;20239;-81
2023/06/17 01:17:25;;;;;;;17.30;11.90;;;14.90;99.90;;;;;;5036766;28;20194;-81
2023/06/17 01:19:54;;;;;;;16.33;11.90;;;14.90;99.90;;;;;;5036213;28;20356;-81
2023/06/17 01:22:21;;;;;;;15.10;11.23;;;14.80;99.90;;;;;;5036328;28;20291;-80
2023/06/17 01:24:50;;;;;;;17.23;11.40;;;14.60;99.90;;;;;;5036218;28;20231;-82
2023/06/17 01:27:17;;;;;;;15.27;11.00;;;14.70;99.90;;;;;;5035912;28;20200;-81
2023/06/17 01:29:47;;;;;;;15.27;11.53;;;14.70;99.90;;;;;;5035877;28;20218;-82
2023/06/17 01:32:14;;;;;;;16.00;10.57;;;14.70;99.90;;;;;;5035862;28;20207;-81
2023/06/17 01:34:46;;;;;;;16.70;10.97;;;14.70;99.90;;;;;;5036179;28;20290;-81
2023/06/17 01:37:19;;;;;;;16.07;11.33;;;14.80;99.90;;;;;;5035770;28;20188;-82
2023/06/17 01:39:48;;;;;;;15.10;10.90;;;14.70;99.90;;;;;;5036105;28;20188;-82
2023/06/17 01:42:26;;;;;;;17.93;10.87;;;14.60;99.90;;;;;;5035763;28;20755;-82
2023/06/17 01:44:55;;;;;;;16.10;11.17;;;14.70;99.90;;;;;;5036441;28;20227;-82
2023/06/17 01:47:22;;;;;;;14.47;10.97;;;14.70;99.90;;;;;;5035965;28;20405;-80
2023/06/17 01:49:52;;;;;;;16.03;11.23;;;14.60;99.90;;;;;;5031344;28;20208;-85
2023/06/17 01:52:19;;;;;;;17.80;11.67;;;14.40;99.90;;;;;;5015382;28;20219;-81
2023/06/17 01:54:46;;;;;;;14.47;10.97;;;14.40;99.90;;;;;;5016149;28;20224;-80
2023/06/17 01:57:13;;;;;;;15.77;10.73;;;14.50;99.90;;;;;;5016109;28;20228;-80
2023/06/17 01:59:41;;;;;;;16.40;11.50;;;14.50;99.90;;;;;;5015838;28;20208;-81
2023/06/17 02:02:08;;;;;;;15.90;11.60;;;14.30;99.90;;;;;;5015683;28;20229;-80
2023/06/17 02:04:35;;;;;;;17.00;11.43;;;14.50;99.90;;;;;;5015054;28;20700;-81
2023/06/17 02:07:02;;;;;;;15.17;10.57;;;14.30;99.90;;;;;;5015895;28;20291;-81
2023/06/17 02:09:29;;;;;;;14.27;10.63;;;14.10;99.90;;;;;;5015505;28;20283;-81
2023/06/17 02:11:55;;;;;;;14.60;10.93;;;14.10;99.90;;;;;;5016127;28;20211;-81
2023/06/17 02:14:22;;;;;;;16.03;11.37;;;14.20;99.90;;;;;;5015711;28;20288;-81
2023/06/17 02:16:52;;;;;;;14.00;10.43;;;14.10;99.90;;;;;;5015110;28;20216;-81
2023/06/17 02:19:47;;;;;;;15.77;10.67;;;14.00;99.90;;;;;;5016024;28;20232;-82
2023/06/17 02:22:14;;;;;;;15.43;11.20;;;14.00;99.90;;;;;;5021603;28;20224;-81
2023/06/17 02:24:42;;;;;;;17.10;11.10;;;13.90;99.90;;;;;;5015563;28;20228;-81
2023/06/17 02:27:09;;;;;;;15.17;10.67;;;13.80;99.90;;;;;;5015478;28;20208;-81
2023/06/17 02:29:36;;;;;;;18.03;11.80;;;13.80;99.90;;;;;;5015363;28;20208;-80
2023/06/17 02:32:05;;;;;;;15.20;11.10;;;13.70;99.90;;;;;;5015630;28;20208;-81
2023/06/17 02:34:33;;;;;;;16.23;11.47;;;13.60;99.90;;;;;;5015498;28;20232;-82
2023/06/17 02:37:00;;;;;;;17.20;11.40;;;13.60;99.90;;;;;;5015340;28;20209;-81
2023/06/17 02:39:26;;;;;;;15.87;11.00;;;13.60;99.90;;;;;;5015299;28;20304;-82
2023/06/17 02:41:53;;;;;;;15.17;10.77;;;13.70;99.90;;;;;;5016338;28;20311;-82
2023/06/17 02:44:20;;;;;;;13.53;10.33;;;13.50;99.90;;;;;;5014862;28;20307;-81
2023/06/17 02:46:47;;;;;;;15.93;11.40;;;13.50;99.90;;;;;;5015720;28;20287;-82
2023/06/17 02:49:15;;;;;;;15.27;10.97;;;13.50;99.90;;;;;;5015137;28;20279;-82
2023/06/17 02:51:42;;;;;;;14.47;10.80;;;13.40;99.90;;;;;;5015579;28;20567;-80
2023/06/17 02:54:10;;;;;;;15.93;10.60;;;13.50;99.90;;;;;;5015300;28;20235;-82
2023/06/17 02:56:37;;;;;;;16.02;11.32;;;13.40;99.90;;;;;;5015887;28;20715;-81
2023/06/17 02:59:04;;;;;;;16.20;10.90;;;13.40;99.90;;;;;;5014909;28;20736;-82
2023/06/17 03:01:31;;;;;;;16.23;11.43;;;13.50;99.90;;;;;;5015257;28;20306;-82
2023/06/17 03:04:03;;;;;;;17.93;11.13;;;13.40;99.90;;;;;;5015342;28;20284;-82
2023/06/17 03:06:33;;;;;;;16.90;11.57;;;13.30;99.90;;;;;;5013990;28;20208;-83
2023/06/17 03:09:01;;;;;;;16.23;11.67;;;13.30;99.90;;;;;;5011508;28;20200;-82
2023/06/17 03:11:29;;;;;;;26.27;20.43;;;13.50;99.90;;;;;;5011738;28;20337;-82
2023/06/17 03:13:56;;;;;;;23.63;17.87;;;13.50;99.90;;;;;;5012762;28;20230;-82
2023/06/17 03:16:24;;;;;;;26.00;16.77;;;13.40;99.90;;;;;;5013342;28;20210;-83
2023/06/17 03:18:51;;;;;;;17.30;12.67;;;13.50;99.90;;;;;;5012097;28;20211;-81
2023/06/17 03:21:18;;;;;;;16.77;11.80;;;13.60;99.90;;;;;;5011697;28;20231;-82
2023/06/17 03:23:48;;;;;;;15.33;10.90;;;13.60;99.90;;;;;;5012417;28;20659;-81
2023/06/17 03:26:15;;;;;;;15.53;11.13;;;13.50;99.90;;;;;;5012515;28;20240;-82
2023/06/17 03:28:42;;;;;;;15.70;11.57;;;13.40;99.90;;;;;;5013187;28;20215;-81
2023/06/17 03:31:10;;;;;;;15.57;11.38;;;13.30;99.90;;;;;;5013658;28;20207;-82
2023/06/17 03:33:37;;;;;;;17.10;11.57;;;13.30;99.90;;;;;;5014157;28;20239;-83
2023/06/17 03:36:04;;;;;;;15.00;11.03;;;13.40;99.90;;;;;;5013431;28;20216;-80
2023/06/17 03:38:31;;;;;;;16.80;11.50;;;13.40;99.90;;;;;;5014063;28;20247;-80
2023/06/17 03:40:59;;;;;;;15.87;11.50;;;13.40;99.90;;;;;;5030058;28;20216;-80
2023/06/17 03:43:26;;;;;;;16.37;12.30;;;13.40;99.90;;;;;;5032853;27;20684;-81
2023/06/17 03:45:53;;;;;;;21.27;16.50;;;13.40;99.90;;;;;;5032912;28;20206;-82
2023/06/17 03:48:20;;;;;;;18.60;11.33;;;13.70;99.90;;;;;;5032640;28;20210;-82
2023/06/17 03:50:47;;;;;;;16.90;12.40;;;13.60;99.90;;;;;;5032748;28;20596;-80
2023/06/17 03:53:14;;;;;;;17.50;11.60;;;13.70;99.90;;;;;;5032643;28;20747;-80
2023/06/17 03:55:41;;;;;;;15.63;10.70;;;13.80;99.90;;;;;;5032524;28;20659;-80
2023/06/17 03:58:14;;;;;;;15.93;10.90;;;13.80;99.90;;;;;;5032300;27;20214;-81
2023/06/17 04:00:41;;;;;;;16.47;11.93;;;13.80;99.90;;;;;;5032119;27;20651;-81
2023/06/17 04:03:08;;;;;;;15.33;11.70;;;13.80;99.90;;;;;;5031950;28;20231;-81
2023/06/17 04:05:35;;;;;;;16.23;11.47;;;13.80;99.90;;;;;;5032203;28;20663;-80
2023/06/17 04:08:03;;;;;;;16.10;11.70;;;13.70;99.90;;;;;;5031872;28;20210;-82
2023/06/17 04:10:30;;;;;;;17.27;12.47;;;14.10;99.90;;;;;;5032115;28;20243;-81
2023/06/17 04:12:57;;;;;;;16.40;11.97;;;14.70;99.90;;;;;;5031714;28;20207;-81
2023/06/17 04:15:25;;;;;;;16.77;12.07;;;15.70;99.90;;;;;;5031571;28;20227;-82
2023/06/17 04:17:52;;;;;;;14.33;10.77;;;16.30;99.90;;;;;;5031468;28;20226;-81
2023/06/17 04:20:19;;;;;;;15.55;11.48;;;15.60;99.90;;;;;;5031140;27;20246;-83
2023/06/17 04:22:46;;;;;;;15.93;11.37;;;15.10;99.90;;;;;;5030936;28;20629;-82
2023/06/17 04:25:15;;;;;;;18.92;11.15;;;15.30;99.90;;;;;;5031152;28;20235;-83
2023/06/17 04:27:42;;;;;;;17.77;11.63;;;15.10;99.90;;;;;;5029292;27;20287;-83
2023/06/17 04:30:10;;;;;;;15.65;11.23;;;15.10;99.90;;;;;;5030665;27;20204;-83
2023/06/17 04:32:39;;;;;;;15.80;11.15;;;15.10;99.90;;;;;;5031574;28;20666;-84
2023/06/17 04:35:08;;;;;;;15.25;11.65;;;15.30;99.90;;;;;;5030743;27;20727;-81
2023/06/17 04:37:36;;;;;;;13.85;10.38;;;15.30;99.90;;;;;;5030737;28;20568;-83
2023/06/17 04:40:06;;;;;;;15.20;10.40;;;15.20;99.90;;;;;;5030746;28;20208;-82
2023/06/17 04:42:34;;;;;;;15.10;10.40;;;15.30;99.90;;;;;;5030337;28;20215;-82
2023/06/17 04:45:01;;;;;;;14.75;11.52;;;15.40;99.90;;;;;;5031429;28;20755;-83
2023/06/17 04:47:29;;;;;;;16.17;11.55;;;15.40;99.90;;;;;;5032113;28;20660;-84
2023/06/17 04:49:57;;;;;;;14.75;11.00;;;15.20;99.90;;;;;;5031576;28;20207;-82
2023/06/17 04:52:24;;;;;;;16.30;11.63;;;15.20;99.90;;;;;;5030769;27;20200;-83
2023/06/17 04:54:51;;;;;;;18.08;12.30;;;15.40;99.90;;;;;;5030851;28;20344;-82
2023/06/17 04:57:18;;;;;;;16.95;12.25;;;15.60;99.90;;;;;;5031384;27;20286;-82
2023/06/17 04:59:45;;;;;;;19.38;12.77;;;15.50;99.90;;;;;;5031412;28;20208;-84
2023/06/17 05:02:13;;;;;;;17.65;12.27;;;15.60;99.90;;;;;;5030423;27;20663;-83
2023/06/17 05:04:40;;;;;;;18.75;13.70;;;15.50;99.90;;;;;;5030077;27;20231;-82
2023/06/17 05:07:08;;;;;;;19.60;13.10;;;15.70;99.90;;;;;;5031258;28;20227;-82
2023/06/17 05:09:35;;;;;;;23.10;15.20;;;15.70;99.90;;;;;;5030963;28;20200;-82
2023/06/17 05:12:02;;;;;;;22.25;15.15;;;15.60;99.90;;;;;;5030270;27;20206;-81
2023/06/17 05:14:28;;;;;;;23.92;15.35;;;15.80;99.90;;;;;;5030626;28;20636;-81
2023/06/17 05:16:55;;;;;;;24.25;15.50;;;15.80;99.90;;;;;;5030422;28;20208;-82
2023/06/17 05:19:22;;;;;;;24.33;16.00;;;15.90;99.90;;;;;;5030538;28;20656;-81
2023/06/17 05:21:49;;;;;;;23.58;15.82;;;16.10;99.90;;;;;;5030140;28;20690;-83
2023/06/17 05:24:17;;;;;;;23.08;16.08;;;16.30;99.90;;;;;;5029679;27;20235;-84
2023/06/17 05:26:44;;;;;;;24.10;16.67;;;16.60;99.90;;;;;;5029642;28;20287;-83
2023/06/17 05:29:11;;;;;;;24.33;17.00;;;16.30;99.90;;;;;;5029691;28;20214;-82
2023/06/17 05:31:38;;;;;;;25.10;17.02;;;16.50;99.90;;;;;;5030261;28;20204;-82
2023/06/17 05:34:08;;;;;;;24.95;17.08;;;16.50;99.90;;;;;;5030339;28;20307;-79
2023/06/17 05:36:35;;;;;;;26.33;18.45;;;16.40;99.90;;;;;;5030248;27;20196;-80
2023/06/17 05:39:02;;;;;;;29.23;18.55;;;16.30;99.90;;;;;;5030568;28;20235;-82
2023/06/17 05:41:30;;;;;;;27.00;18.85;;;16.30;99.90;;;;;;5032376;28;20203;-82
2023/06/17 05:43:57;;;;;;;26.73;18.33;;;16.30;99.90;;;;;;5032974;28;20518;-81
2023/06/17 05:46:24;;;;;;;28.98;18.58;;;16.20;99.90;;;;;;5021807;28;20211;-82
2023/06/17 05:48:51;;;;;;;30.52;19.17;;;16.10;99.90;;;;;;5021258;28;20199;-82
2023/06/17 05:51:18;;;;;;;28.58;17.88;;;16.10;99.90;;;;;;5032993;28;20207;-81
2023/06/17 05:53:45;;;;;;;30.60;18.38;;;16.20;99.90;;;;;;5032298;28;20232;-84
2023/06/17 05:56:12;;;;;;;28.58;18.15;;;16.10;99.90;;;;;;5032444;28;20203;-81
2023/06/17 05:58:40;;;;;;;26.25;18.70;;;16.00;99.90;;;;;;5030566;28;20202;-82
2023/06/17 06:01:07;;;;;;;26.50;18.65;;;16.00;99.90;;;;;;5012761;28;20213;-81
2023/06/17 06:03:34;;;;;;;30.02;19.20;;;16.00;99.90;;;;;;5013249;28;20228;-81
2023/06/17 06:06:01;;;;;;;24.83;17.63;;;16.00;99.90;;;;;;5015009;28;20299;-82
2023/06/17 06:08:27;;;;;;;30.73;19.38;;;15.90;99.90;;;;;;5014429;28;20197;-82
2023/06/17 06:10:55;;;;;;;29.92;18.73;;;16.00;99.90;;;;;;5012535;28;20240;-82
2023/06/17 06:13:21;;;;;;;27.27;18.48;;;16.00;99.90;;;;;;5011506;28;20208;-83
2023/06/17 06:15:50;;;;;;;30.58;19.85;;;16.00;99.90;;;;;;5013606;28;20211;-82
2023/06/17 06:18:17;;;;;;;27.73;18.98;;;15.70;99.90;;;;;;5012683;28;20212;-82
2023/06/17 06:20:44;;;;;;;29.58;20.27;;;15.70;99.90;;;;;;5012480;28;20239;-81
2023/06/17 06:23:11;;;;;;;30.08;19.63;;;15.80;99.90;;;;;;5011479;28;20256;-80
2023/06/17 06:25:38;;;;;;;30.08;19.58;;;16.00;99.90;;;;;;5013917;28;20226;-80
2023/06/17 06:28:06;;;;;;;29.30;18.90;;;16.20;99.90;;;;;;5024432;28;20204;-81
2023/06/17 06:30:33;;;;;;;31.60;20.35;;;16.10;99.90;;;;;;5028103;27;20207;-81
2023/06/17 06:33:01;;;;;;;27.60;18.42;;;16.10;99.90;;;;;;5067886;27;20701;-80
2023/06/17 06:35:28;;;;;;;29.77;19.70;;;16.10;99.90;;;;;;5016904;28;20215;-81
2023/06/17 06:37:55;;;;;;;32.10;19.80;;;16.30;99.90;;;;;;5020773;28;20747;-79
2023/06/17 06:40:21;;;;;;;31.42;19.58;;;16.50;99.90;;;;;;5040307;27;20218;-80
2023/06/17 06:42:48;;;;;;;30.70;20.20;;;16.40;99.90;;;;;;5017507;28;20213;-81
2023/06/17 06:45:15;;;;;;;27.50;19.30;;;16.30;99.90;;;;;;5030315;27;20231;-80
2023/06/17 06:47:42;;;;;;;27.05;19.10;;;16.30;99.90;;;;;;5018537;28;20218;-80
2023/06/17 06:50:11;;;;;;;29.98;20.45;;;16.50;99.90;;;;;;5026926;28;20229;-80
2023/06/17 06:52:37;;;;;;;29.08;19.60;;;16.40;99.90;;;;;;5035975;27;20207;-82
2023/06/17 06:55:05;;;;;;;26.38;18.98;;;16.50;99.90;;;;;;5025439;28;20665;-81
2023/06/17 06:57:32;;;;;;;30.48;20.42;;;16.50;99.90;;;;;;5018641;28;20208;-81
2023/06/17 06:59:59;;;;;;;30.33;20.45;;;16.70;99.90;;;;;;5017958;28;20231;-81
2023/06/17 07:02:25;;;;;;;29.42;19.88;;;16.70;99.90;;;;;;5031315;28;20230;-82
2023/06/17 07:04:52;;;;;;;28.48;20.08;;;16.90;99.90;;;;;;5028466;28;20227;-81
2023/06/17 07:07:23;;;;;;;29.70;21.02;;;16.70;99.90;;;;;;5016213;28;20228;-80
2023/06/17 07:09:50;;;;;;;27.25;19.90;;;17.00;99.90;;;;;;5047194;27;20752;-82
2023/06/17 07:12:17;;;;;;;27.65;19.52;;;17.30;99.90;;;;;;5035934;27;20579;-80
2023/06/17 07:14:44;;;;;;;30.40;20.73;;;17.60;99.90;;;;;;5035107;27;20687;-81
2023/06/17 07:17:11;;;;;;;27.15;19.58;;;17.50;99.90;;;;;;5030030;27;20567;-81
2023/06/17 07:19:38;;;;;;;27.17;18.73;;;17.50;99.90;;;;;;5037106;27;20221;-81
2023/06/17 07:22:05;;;;;;;27.35;19.63;;;17.60;99.90;;;;;;5042363;27;20489;-81
2023/06/17 07:24:33;;;;;;;25.35;17.90;;;17.50;99.90;;;;;;5014760;28;20228;-81
2023/06/17 07:27:00;;;;;;;27.65;19.42;;;17.60;99.90;;;;;;5021714;28;20287;-81
2023/06/17 07:29:27;;;;;;;28.70;20.10;;;17.70;99.90;;;;;;5022171;28;20267;-80
2023/06/17 07:31:54;;;;;;;24.90;18.25;;;17.70;99.90;;;;;;5017045;28;20209;-80
2023/06/17 07:34:22;;;;;;;25.25;18.02;;;17.40;99.90;;;;;;5036557;27;20255;-81
2023/06/17 07:36:52;;;;;;;28.35;19.33;;;17.50;99.90;;;;;;5030386;28;20287;-81
2023/06/17 07:39:19;;;;;;;26.48;18.55;;;17.70;99.90;;;;;;5037054;27;20206;-81
2023/06/17 07:41:47;;;;;;;27.00;19.13;;;17.80;99.90;;;;;;5024958;28;20223;-82
2023/06/17 07:44:14;;;;;;;26.02;17.95;;;17.70;99.90;;;;;;5021331;28;20251;-83
2023/06/17 07:46:41;;;;;;;25.08;18.20;;;17.60;99.90;;;;;;5030447;28;20203;-82
2023/06/17 07:49:08;;;;;;;25.90;17.85;;;17.90;99.90;;;;;;5031052;28;20682;-81
2023/06/17 07:51:36;;;;;;;26.48;19.17;;;17.80;99.90;;;;;;5023754;28;20207;-81
2023/06/17 07:54:04;;;;;;;28.00;20.40;;;17.90;99.90;;;;;;5033304;27;20667;-82
2023/06/17 07:56:31;;;;;;;25.75;18.90;;;17.90;99.90;;;;;;5023520;28;20644;-80
2023/06/17 09:31:31;;;;;;;24.48;18.45;;;20.90;99.90;;;;;;4964782;28;20576;-87
2023/06/17 13:17:46;;;;;;;11.48;8.60;;;27.30;1.00;;;;;;4824913;29;20211;-89
2023/06/17 13:20:53;;;;;;;12.50;10.02;;;27.40;1.00;;;;;;4798751;29;20215;-89
2023/06/17 13:27:23;;;;;;;11.95;8.10;;;26.80;1.00;;;;;;4876042;28;20566;-89
2023/06/17 15:31:38;;;;;;;;;;;;;;;;;;;;;
2023/06/17 15:54:06;;;;;;;11.00;8.82;;;26.40;1.00;;;;;;5065834;23;20575;-80
2023/06/17 15:56:37;;;;;;;10.05;8.77;;;26.30;1.00;;;;;;5068761;28;20225;-79
2023/06/17 15:59:05;;;;;;;11.63;9.10;;;25.90;99.90;;;;;;5065142;28;20207;-81
2023/06/17 16:01:32;;;;;;;10.23;9.00;;;25.50;1.00;;;;;;5053287;28;20219;-80
2023/06/17 16:03:59;;;;;;;11.70;8.35;;;25.70;1.00;;;;;;5049683;28;20210;-80
2023/06/17 16:06:26;;;;;;;11.02;8.02;;;26.20;1.00;;;;;;5042548;28;20674;-81
2023/06/17 16:08:53;;;;;;;10.90;9.27;;;26.20;1.00;;;;;;5036169;28;20258;-81
2023/06/17 16:11:21;;;;;;;10.55;8.85;;;25.80;1.00;;;;;;5041438;28;20226;-79
2023/06/17 16:13:48;;;;;;;9.40;8.32;;;26.10;1.00;;;;;;5046242;28;20286;-81
2023/06/17 16:16:15;;;;;;;11.70;8.82;;;26.10;99.90;;;;;;5048930;28;20207;-80
2023/06/17 16:18:42;;;;;;;11.02;9.10;;;26.10;99.90;;;;;;5042210;28;20204;-80
2023/06/17 16:21:09;;;;;;;10.02;8.80;;;26.20;1.00;;;;;;5045211;28;20223;-78
2023/06/17 16:23:36;;;;;;;12.65;8.93;;;25.90;1.00;;;;;;5051527;28;20203;-78
2023/06/17 16:26:03;;;;;;;10.60;8.05;;;26.10;1.00;;;;;;5048795;28;20241;-78
2023/06/17 16:28:31;;;;;;;8.75;7.85;;;26.20;1.00;;;;;;5048518;28;20886;-80
2023/06/17 16:30:58;;;;;;;10.48;8.38;;;26.10;1.00;;;;;;5045140;28;20228;-80
2023/06/17 16:33:25;;;;;;;9.88;7.95;;;26.00;1.00;;;;;;5044820;28;20203;-80
2023/06/17 16:35:51;;;;;;;10.82;7.82;;;26.00;1.00;;;;;;5035744;28;20639;-80
2023/06/17 16:38:18;;;;;;;9.82;8.10;;;26.20;1.00;;;;;;5049620;28;20211;-79
2023/06/17 16:40:45;;;;;;;10.88;8.02;;;26.00;1.00;;;;;;5055324;28;20229;-80
2023/06/17 16:43:12;;;;;;;9.20;7.90;;;25.80;99.90;;;;;;5049247;28;20202;-80
2023/06/17 16:45:40;;;;;;;9.80;7.72;;;25.90;1.00;;;;;;5048691;28;20226;-81
2023/06/17 16:48:07;;;;;;;9.80;8.38;;;25.90;1.00;;;;;;5050328;28;20211;-82
2023/06/17 16:50:33;;;;;;;9.40;8.15;;;25.80;1.00;;;;;;5042194;28;20250;-82
2023/06/17 16:53:00;;;;;;;9.38;8.18;;;25.70;1.00;;;;;;5040897;28;20233;-82
2023/06/17 16:55:27;;;;;;;9.95;7.78;;;25.70;1.00;;;;;;5043743;28;20282;-81
2023/06/17 16:57:54;;;;;;;9.50;7.78;;;25.60;1.00;;;;;;5052022;28;20206;-81
2023/06/17 17:00:26;;;;;;;9.55;8.18;;;25.60;1.00;;;;;;5064053;28;20293;-82
2023/06/17 17:02:55;;;;;;;9.55;7.80;;;25.70;1.00;;;;;;5050626;28;20195;-81
2023/06/17 17:05:22;;;;;;;9.00;7.78;;;25.50;1.00;;;;;;5058543;28;20222;-80
2023/06/17 17:07:49;;;;;;;9.25;7.85;;;25.60;1.00;;;;;;5051566;28;20202;-80
2023/06/17 17:10:22;;;;;;;9.68;8.13;;;25.50;1.00;;;;;;5040874;28;20224;-81
2023/06/17 17:12:49;;;;;;;13.52;9.43;;;25.50;1.00;;;;;;5052211;28;20226;-81
2023/06/17 17:15:16;;;;;;;13.80;8.80;;;25.40;1.00;;;;;;5052964;28;20202;-81
2023/06/17 17:17:43;;;;;;;12.27;7.55;;;25.30;1.00;;;;;;5054520;28;20852;-81
2023/06/17 17:20:12;;;;;;;9.40;7.88;;;25.20;1.00;;;;;;5059245;28;20615;-81
2023/06/17 17:22:40;;;;;;;9.45;8.20;;;25.20;1.00;;;;;;5048931;28;20685;-81
2023/06/17 17:25:07;;;;;;;9.65;8.20;;;25.20;1.00;;;;;;5061818;28;20250;-81
2023/06/17 17:27:34;;;;;;;9.95;8.40;;;25.30;99.90;;;;;;5062598;28;20282;-82
2023/06/17 17:30:01;;;;;;;9.05;7.88;;;25.30;99.90;;;;;;5041370;28;20220;-81
2023/06/17 17:32:28;;;;;;;9.15;8.10;;;25.10;99.90;;;;;;5039972;28;20266;-81
2023/06/17 17:34:55;;;;;;;8.77;7.63;;;25.20;99.90;;;;;;5050527;28;20281;-80
2023/06/17 17:37:23;;;;;;;8.90;7.63;;;25.20;37.20;;;;;;5059997;28;20198;-80
2023/06/17 17:39:50;;;;;;;10.18;8.52;;;25.20;99.90;;;;;;5047152;28;20322;-81
2023/06/17 17:42:17;;;;;;;10.05;8.27;;;25.20;99.90;;;;;;5057508;28;20203;-80
2023/06/17 17:44:44;;;;;;;8.30;7.45;;;25.10;99.90;;;;;;5066494;28;20219;-80
2023/06/17 17:47:11;;;;;;;8.82;7.93;;;25.10;29.40;;;;;;5062675;28;20207;-80
2023/06/17 17:49:38;;;;;;;10.90;9.23;;;25.10;99.90;;;;;;5055623;28;20213;-80
2023/06/17 17:52:05;;;;;;;11.25;8.60;;;25.00;1.00;;;;;;5052588;28;20227;-80
2023/06/17 17:54:33;;;;;;;11.05;8.73;;;24.90;1.00;;;;;;5046240;28;20246;-79
2023/06/17 17:57:00;;;;;;;11.60;8.50;;;24.80;1.00;;;;;;5049649;28;20206;-80
2023/06/17 17:59:27;;;;;;;13.43;8.65;;;24.80;61.30;;;;;;5057345;28;20674;-80
2023/06/17 18:01:55;;;;;;;9.85;8.60;;;24.80;99.90;;;;;;5040797;28;20210;-80
2023/06/17 18:04:21;;;;;;;11.15;8.68;;;24.70;1.00;;;;;;5052640;28;20201;-81
2023/06/17 18:06:48;;;;;;;11.00;8.45;;;24.60;1.00;;;;;;5048708;28;20294;-81
2023/06/17 18:09:15;;;;;;;12.13;8.55;;;24.50;85.80;;;;;;5046416;28;20203;-82
2023/06/17 18:11:44;;;;;;;10.48;8.32;;;24.50;1.00;;;;;;5051223;28;20215;-82
2023/06/17 18:14:10;;;;;;;12.95;9.55;;;24.40;1.00;;;;;;5041126;28;20208;-81
2023/06/17 18:16:37;;;;;;;10.23;8.15;;;24.40;99.90;;;;;;5057748;28;20195;-81
2023/06/17 18:19:05;;;;;;;10.07;8.32;;;24.30;1.00;;;;;;5049972;28;20210;-81
2023/06/17 18:21:32;;;;;;;10.38;8.25;;;24.30;1.00;;;;;;5048402;28;20229;-81
2023/06/17 18:24:02;;;;;;;9.98;8.52;;;24.30;1.00;;;;;;5050078;28;20195;-80
2023/06/17 18:26:32;;;;;;;11.90;8.75;;;24.20;1.00;;;;;;5047132;28;20310;-81
2023/06/17 18:29:01;;;;;;;10.90;8.73;;;24.10;99.90;;;;;;5044186;28;20204;-81
2023/06/17 18:31:29;;;;;;;11.20;8.90;;;24.00;99.90;;;;;;5046779;28;20301;-81
2023/06/17 18:33:56;;;;;;;12.32;9.43;;;23.90;1.00;;;;;;5049241;28;20205;-81
2023/06/17 18:36:23;;;;;;;12.02;8.57;;;23.90;1.00;;;;;;5046980;28;20196;-82
2023/06/17 18:38:50;;;;;;;12.07;8.95;;;23.70;1.00;;;;;;5047999;28;20203;-81
2023/06/17 18:41:16;;;;;;;9.48;8.13;;;23.70;1.00;;;;;;5041936;28;20220;-83
2023/06/17 18:43:43;;;;;;;9.35;7.70;;;23.70;1.00;;;;;;5051510;28;20281;-82
2023/06/17 18:46:11;;;;;;;11.65;8.20;;;23.60;1.00;;;;;;5045214;28;20225;-81
2023/06/17 18:48:38;;;;;;;10.98;8.38;;;23.50;1.00;;;;;;5047335;28;20294;-81
2023/06/17 18:51:05;;;;;;;11.43;8.27;;;23.10;30.10;;;;;;5050371;28;20215;-83
2023/06/17 18:53:32;;;;;;;10.27;8.13;;;23.10;1.00;;;;;;5044097;28;20209;-81
2023/06/17 18:55:59;;;;;;;11.57;8.38;;;23.00;15.80;;;;;;5045275;28;20210;-82
2023/06/17 18:58:25;;;;;;;8.48;7.38;;;22.90;99.90;;;;;;5048030;28;20202;-83
2023/06/17 19:00:52;;;;;;;9.98;8.07;;;22.70;99.90;;;;;;5047783;28;20230;-80
2023/06/17 19:03:20;;;;;;;8.88;7.80;;;22.70;99.90;;;;;;5043236;28;20218;-79
2023/06/17 19:05:50;;;;;;;9.93;8.35;;;22.70;99.90;;;;;;5047347;28;20220;-82
2023/06/17 19:08:17;;;;;;;9.43;7.93;;;22.70;99.90;;;;;;5048580;28;20206;-80
2023/06/17 19:10:44;;;;;;;9.45;7.78;;;22.60;99.90;;;;;;5042193;28;20241;-83
2023/06/17 19:13:11;;;;;;;10.00;7.97;;;22.40;99.90;;;;;;5045551;28;20242;-81
2023/06/17 19:15:38;;;;;;;9.43;7.63;;;22.40;99.90;;;;;;5042441;28;20196;-84
2023/06/17 19:18:06;;;;;;;11.27;8.00;;;22.20;99.90;;;;;;5048721;28;20210;-81
2023/06/17 19:20:34;;;;;;;10.50;7.57;;;22.20;99.90;;;;;;5042216;28;20246;-81
2023/06/17 19:23:00;;;;;;;10.65;8.02;;;22.10;99.90;;;;;;5045665;28;20223;-80
2023/06/17 19:25:27;;;;;;;8.75;7.68;;;22.00;99.90;;;;;;5043711;28;20245;-80
2023/06/17 19:27:54;;;;;;;10.85;7.72;;;21.90;99.90;;;;;;5044030;28;20246;-79
2023/06/17 19:30:21;;;;;;;11.82;8.18;;;21.90;99.90;;;;;;5047918;28;20644;-79
2023/06/17 19:32:48;;;;;;;12.65;8.00;;;21.80;99.90;;;;;;5051819;28;20199;-79
2023/06/17 19:35:15;;;;;;;12.02;8.35;;;21.70;99.90;;;;;;5045110;28;20231;-80
2023/06/17 19:37:43;;;;;;;11.52;8.10;;;21.70;99.90;;;;;;5041837;28;20231;-81
2023/06/17 19:40:12;;;;;;;8.73;7.45;;;21.70;99.90;;;;;;5040385;28;20227;-80
2023/06/17 19:42:38;;;;;;;12.00;8.30;;;21.60;99.90;;;;;;5045098;28;20823;-80
2023/06/17 19:45:09;;;;;;;12.00;8.60;;;21.40;99.90;;;;;;5045328;28;20195;-79
2023/06/17 19:47:36;;;;;;;11.85;8.32;;;21.30;99.90;;;;;;5048932;28;20199;-80
2023/06/17 19:50:03;;;;;;;11.50;8.10;;;20.70;99.90;;;;;;5050520;28;20223;-80
2023/06/17 19:52:30;;;;;;;9.70;7.50;;;20.70;99.90;;;;;;5048649;28;20237;-81
2023/06/17 19:54:58;;;;;;;19.13;16.25;;;20.60;99.90;;;;;;5048599;28;20647;-80
2023/06/17 19:57:24;;;;;;;11.10;7.65;;;20.60;99.90;;;;;;5049728;28;20195;-80
2023/06/17 19:59:51;;;;;;;10.52;7.93;;;20.60;99.90;;;;;;5059006;28;20717;-80
2023/06/17 20:02:19;;;;;;;10.40;7.95;;;20.60;99.90;;;;;;5050288;28;20568;-80
2023/06/17 20:04:46;;;;;;;10.23;8.23;;;20.50;99.90;;;;;;5043642;28;20249;-79
2023/06/17 20:07:12;;;;;;;10.57;8.38;;;20.10;99.90;;;;;;5047942;28;20597;-80
2023/06/17 20:09:39;;;;;;;10.93;7.65;;;20.10;99.90;;;;;;5046479;28;20199;-80
2023/06/17 20:12:08;;;;;;;12.05;8.57;;;20.20;99.90;;;;;;5052872;28;20585;-79
2023/06/17 20:14:35;;;;;;;11.75;9.00;;;19.50;99.90;;;;;;5049848;28;20206;-80
2023/06/17 20:17:03;;;;;;;13.15;9.38;;;18.30;99.90;;;;;;5046687;28;20700;-80
2023/06/17 20:19:30;;;;;;;12.23;9.25;;;18.60;99.90;;;;;;5048787;28;20286;-79